sensor_id;sensor_type;location;lat;lon;timestamp;temperature;humidity
37408;DHT22;24866;50.248;8.252;2023-07-02T00:01:25;16.00;99.90
37408;DHT22;24866;50.248;8.252;2023-07-02T00:03:54;15.90;99.90
37408;DHT22;24866;50.248;8.252;2023-07-02T00:06:24;16.00;99.90
37408;DHT22;24866;50.248;8.252;2023-07-02T00:08:56;15.90;99.90
37408;DHT22;24866;50.248;8.252;2023-07-02T00:11:26;15.90;99.90
37408;DHT22;24866;50.248;8.252;2023-07-02T00:13:56;15.90;99.90
37408;DHT22;24866;50.248;8.252;2023-07-02T00:16:27;15.90;99.90
37408;DHT22;24866;50.248;8.252;2023-07-02T00:18:57;15.80;99.90
37408;DHT22;24866;50.248;8.252;2023-07-02T00:21:28;15.80;99.90
37408;DHT22;24866;50.248;8.252;2023-07-02T00:23:58;15.90;99.90
37408;DHT22;24866;50.248;8.252;2023-07-02T00:26:28;15.80;99.90
37408;DHT22;24866;50.248;8.252;2023-07-02T00:28:58;15.70;99.90
37408;DHT22;24866;50.248;8.252;2023-07-02T00:31:29;15.60;99.90
37408;DHT22;24866;50.248;8.252;2023-07-02T00:33:59;15.60;99.90
37408;DHT22;24866;50.248;8.252;2023-07-02T00:36:30;15.60;99.90
37408;DHT22;24866;50.248;8.252;2023-07-02T00:39:00;15.50;99.90
37408;DHT22;24866;50.248;8.252;2023-07-02T00:41:30;15.50;99.90
37408;DHT22;24866;50.248;8.252;2023-07-02T00:44:00;15.50;99.90
37408;DHT22;24866;50.248;8.252;2023-07-02T00:46:31;15.40;99.90
37408;DHT22;24866;50.248;8.252;2023-07-02T00:49:04;15.30;99.90
37408;DHT22;24866;50.248;8.252;2023-07-02T00:51:34;15.30;99.90
37408;DHT22;24866;50.248;8.252;2023-07-02T00:54:05;15.30;99.90
37408;DHT22;24866;50.248;8.252;2023-07-02T00:56:36;15.20;99.90
37408;DHT22;24866;50.248;8.252;2023-07-02T00:59:06;15.20;99.90
37408;DHT22;24866;50.248;8.252;2023-07-02T01:01:37;15.20;99.90
37408;DHT22;24866;50.248;8.252;2023-07-02T01:04:08;15.10;99.90
37408;DHT22;24866;50.248;8.252;2023-07-02T01:06:40;14.90;99.90
37408;DHT22;24866;50.248;8.252;2023-07-02T01:09:11;15.00;99.90
37408;DHT22;24866;50.248;8.252;2023-07-02T01:11:43;14.80;99.90
37408;DHT22;24866;50.248;8.252;2023-07-02T01:14:18;14.70;99.90
37408;DHT22;24866;50.248;8.252;2023-07-02T01:16:53;14.60;99.90
37408;DHT22;24866;50.248;8.252;2023-07-02T01:19:37;14.70;99.90
37408;DHT22;24866;50.248;8.252;2023-07-02T01:22:09;14.70;99.90
37408;DHT22;24866;50.248;8.252;2023-07-02T01:24:39;14.60;99.90
37408;DHT22;24866;50.248;8.252;2023-07-02T01:27:11;14.70;99.90
37408;DHT22;24866;50.248;8.252;2023-07-02T01:29:42;14.70;99.90
37408;DHT22;24866;50.248;8.252;2023-07-02T01:32:13;14.70;99.90
37408;DHT22;24866;50.248;8.252;2023-07-02T01:34:45;14.70;99.90
37408;DHT22;24866;50.248;8.252;2023-07-02T01:37:17;14.80;99.90
37408;DHT22;24866;50.248;8.252;2023-07-02T01:39:47;14.90;99.90
37408;DHT22;24866;50.248;8.252;2023-07-02T01:42:18;14.80;99.90
37408;DHT22;24866;50.248;8.252;2023-07-02T01:44:49;14.80;99.90
37408;DHT22;24866;50.248;8.252;2023-07-02T01:47:19;14.80;99.90
37408;DHT22;24866;50.248;8.252;2023-07-02T01:49:51;14.80;99.90
37408;DHT22;24866;50.248;8.252;2023-07-02T01:52:20;14.60;99.90
37408;DHT22;24866;50.248;8.252;2023-07-02T01:54:50;14.90;99.90
37408;DHT22;24866;50.248;8.252;2023-07-02T01:57:21;15.00;99.90
37408;DHT22;24866;50.248;8.252;2023-07-02T01:59:50;14.90;99.90
37408;DHT22;24866;50.248;8.252;2023-07-02T02:02:20;14.80;99.90
37408;DHT22;24866;50.248;8.252;2023-07-02T02:04:52;14.80;99.90
37408;DHT22;24866;50.248;8.252;2023-07-02T02:07:21;14.70;99.90
37408;DHT22;24866;50.248;8.252;2023-07-02T02:09:51;14.50;99.90
37408;DHT22;24866;50.248;8.252;2023-07-02T02:12:21;14.60;99.90
37408;DHT22;24866;50.248;8.252;2023-07-02T02:14:51;14.30;99.90
37408;DHT22;24866;50.248;8.252;2023-07-02T02:17:21;14.50;99.90
37408;DHT22;24866;50.248;8.252;2023-07-02T02:19:53;14.70;99.90
37408;DHT22;24866;50.248;8.252;2023-07-02T02:22:23;14.80;99.90
37408;DHT22;24866;50.248;8.252;2023-07-02T02:24:53;14.60;99.90
37408;DHT22;24866;50.248;8.252;2023-07-02T02:27:23;14.30;99.90
37408;DHT22;24866;50.248;8.252;2023-07-02T02:29:52;14.30;99.90
37408;DHT22;24866;50.248;8.252;2023-07-02T02:32:22;14.60;99.90
37408;DHT22;24866;50.248;8.252;2023-07-02T02:34:54;14.50;99.90
37408;DHT22;24866;50.248;8.252;2023-07-02T02:37:23;14.30;99.90
37408;DHT22;24866;50.248;8.252;2023-07-02T02:39:53;14.30;99.90
37408;DHT22;24866;50.248;8.252;2023-07-02T02:42:25;14.20;99.90
37408;DHT22;24866;50.248;8.252;2023-07-02T02:44:55;14.20;99.90
37408;DHT22;24866;50.248;8.252;2023-07-02T02:47:24;14.10;99.90
37408;DHT22;24866;50.248;8.252;2023-07-02T02:49:59;14.10;99.90
37408;DHT22;24866;50.248;8.252;2023-07-02T02:52:28;14.10;99.90
37408;DHT22;24866;50.248;8.252;2023-07-02T02:54:59;14.20;99.90
37408;DHT22;24866;50.248;8.252;2023-07-02T02:57:29;14.10;99.90
37408;DHT22;24866;50.248;8.252;2023-07-02T02:59:59;14.10;99.90
37408;DHT22;24866;50.248;8.252;2023-07-02T03:02:30;14.10;99.90
37408;DHT22;24866;50.248;8.252;2023-07-02T03:05:01;14.10;99.90
37408;DHT22;24866;50.248;8.252;2023-07-02T03:07:32;14.10;99.90
37408;DHT22;24866;50.248;8.252;2023-07-02T03:10:02;14.00;99.90
37408;DHT22;24866;50.248;8.252;2023-07-02T03:12:31;14.00;99.90
37408;DHT22;24866;50.248;8.252;2023-07-02T03:15:01;14.00;99.90
37408;DHT22;24866;50.248;8.252;2023-07-02T03:17:32;14.00;99.90
37408;DHT22;24866;50.248;8.252;2023-07-02T03:20:03;14.00;99.90
37408;DHT22;24866;50.248;8.252;2023-07-02T03:22:33;14.00;99.90
37408;DHT22;24866;50.248;8.252;2023-07-02T03:25:04;14.00;99.90
37408;DHT22;24866;50.248;8.252;2023-07-02T03:27:34;14.00;99.90
37408;DHT22;24866;50.248;8.252;2023-07-02T03:30:05;14.00;99.90
37408;DHT22;24866;50.248;8.252;2023-07-02T03:32:35;14.00;99.90
37408;DHT22;24866;50.248;8.252;2023-07-02T03:35:07;14.00;99.90
37408;DHT22;24866;50.248;8.252;2023-07-02T03:37:36;14.10;99.90
37408;DHT22;24866;50.248;8.252;2023-07-02T03:40:07;14.00;99.90
37408;DHT22;24866;50.248;8.252;2023-07-02T03:42:37;14.00;99.90
37408;DHT22;24866;50.248;8.252;2023-07-02T03:45:08;14.00;99.90
37408;DHT22;24866;50.248;8.252;2023-07-02T03:47:37;14.00;99.90
37408;DHT22;24866;50.248;8.252;2023-07-02T03:50:09;14.10;99.90
37408;DHT22;24866;50.248;8.252;2023-07-02T03:52:39;14.10;99.90
37408;DHT22;24866;50.248;8.252;2023-07-02T03:55:09;14.10;99.90
37408;DHT22;24866;50.248;8.252;2023-07-02T03:57:38;14.10;99.90
37408;DHT22;24866;50.248;8.252;2023-07-02T04:00:09;14.10;99.90
37408;DHT22;24866;50.248;8.252;2023-07-02T04:02:39;14.10;99.90
37408;DHT22;24866;50.248;8.252;2023-07-02T04:05:11;14.10;99.90
37408;DHT22;24866;50.248;8.252;2023-07-02T04:07:41;14.10;99.90
37408;DHT22;24866;50.248;8.252;2023-07-02T04:10:10;14.20;99.90
37408;DHT22;24866;50.248;8.252;2023-07-02T04:12:40;14.20;99.90
37408;DHT22;24866;50.248;8.252;2023-07-02T04:15:10;14.20;99.90
37408;DHT22;24866;50.248;8.252;2023-07-02T04:17:40;14.20;99.90
37408;DHT22;24866;50.248;8.252;2023-07-02T04:20:11;14.20;99.90
37408;DHT22;24866;50.248;8.252;2023-07-02T04:22:41;14.30;99.90
37408;DHT22;24866;50.248;8.252;2023-07-02T04:25:11;14.30;99.90
37408;DHT22;24866;50.248;8.252;2023-07-02T04:27:43;14.30;99.90
37408;DHT22;24866;50.248;8.252;2023-07-02T04:30:13;14.30;99.90
37408;DHT22;24866;50.248;8.252;2023-07-02T04:32:43;14.30;99.90
37408;DHT22;24866;50.248;8.252;2023-07-02T04:35:14;14.30;99.90
37408;DHT22;24866;50.248;8.252;2023-07-02T04:37:45;14.40;99.90
37408;DHT22;24866;50.248;8.252;2023-07-02T04:40:14;14.40;99.90
37408;DHT22;24866;50.248;8.252;2023-07-02T04:42:45;14.40;99.90
37408;DHT22;24866;50.248;8.252;2023-07-02T04:45:15;14.40;99.90
37408;DHT22;24866;50.248;8.252;2023-07-02T04:47:45;14.40;99.90
37408;DHT22;24866;50.248;8.252;2023-07-02T04:50:17;14.40;99.90
37408;DHT22;24866;50.248;8.252;2023-07-02T04:52:47;14.40;99.90
37408;DHT22;24866;50.248;8.252;2023-07-02T04:55:16;14.50;99.90
37408;DHT22;24866;50.248;8.252;2023-07-02T04:57:46;14.40;99.90
37408;DHT22;24866;50.248;8.252;2023-07-02T05:00:17;14.50;99.90
37408;DHT22;24866;50.248;8.252;2023-07-02T05:02:47;14.50;99.90
37408;DHT22;24866;50.248;8.252;2023-07-02T05:05:21;14.50;99.90
37408;DHT22;24866;50.248;8.252;2023-07-02T05:07:50;14.60;99.90
37408;DHT22;24866;50.248;8.252;2023-07-02T05:10:22;14.70;99.90
37408;DHT22;24866;50.248;8.252;2023-07-02T05:12:52;14.80;99.90
37408;DHT22;24866;50.248;8.252;2023-07-02T05:15:23;14.80;99.90
37408;DHT22;24866;50.248;8.252;2023-07-02T05:17:53;14.70;99.90
37408;DHT22;24866;50.248;8.252;2023-07-02T05:20:24;14.70;99.90
37408;DHT22;24866;50.248;8.252;2023-07-02T05:22:54;14.70;99.90
37408;DHT22;24866;50.248;8.252;2023-07-02T05:25:24;14.70;99.90
37408;DHT22;24866;50.248;8.252;2023-07-02T05:27:54;14.80;99.90
37408;DHT22;24866;50.248;8.252;2023-07-02T05:30:24;14.80;99.90
37408;DHT22;24866;50.248;8.252;2023-07-02T05:32:53;14.80;99.90
37408;DHT22;24866;50.248;8.252;2023-07-02T05:35:25;14.80;99.90
37408;DHT22;24866;50.248;8.252;2023-07-02T05:37:54;14.90;99.90
37408;DHT22;24866;50.248;8.252;2023-07-02T05:40:24;14.90;99.90
37408;DHT22;24866;50.248;8.252;2023-07-02T05:42:54;14.90;99.90
37408;DHT22;24866;50.248;8.252;2023-07-02T05:45:24;15.00;99.90
37408;DHT22;24866;50.248;8.252;2023-07-02T05:47:55;15.00;99.90
37408;DHT22;24866;50.248;8.252;2023-07-02T05:50:27;15.00;99.90
37408;DHT22;24866;50.248;8.252;2023-07-02T05:52:56;15.10;99.90
37408;DHT22;24866;50.248;8.252;2023-07-02T05:55:26;15.20;99.90
37408;DHT22;24866;50.248;8.252;2023-07-02T05:57:56;15.20;99.90
37408;DHT22;24866;50.248;8.252;2023-07-02T06:00:33;15.20;99.90
37408;DHT22;24866;50.248;8.252;2023-07-02T06:03:02;15.40;99.90
37408;DHT22;24866;50.248;8.252;2023-07-02T06:05:34;15.40;99.90
37408;DHT22;24866;50.248;8.252;2023-07-02T06:08:04;15.50;99.90
37408;DHT22;24866;50.248;8.252;2023-07-02T06:10:34;15.60;99.90
37408;DHT22;24866;50.248;8.252;2023-07-02T06:13:03;15.60;99.90
37408;DHT22;24866;50.248;8.252;2023-07-02T06:15:33;15.60;99.90
37408;DHT22;24866;50.248;8.252;2023-07-02T06:18:04;15.70;99.90
37408;DHT22;24866;50.248;8.252;2023-07-02T06:20:35;15.70;99.90
37408;DHT22;24866;50.248;8.252;2023-07-02T06:23:07;15.80;99.90
37408;DHT22;24866;50.248;8.252;2023-07-02T06:25:36;15.90;99.90
37408;DHT22;24866;50.248;8.252;2023-07-02T06:28:06;16.00;99.90
37408;DHT22;24866;50.248;8.252;2023-07-02T06:30:36;16.00;99.90
37408;DHT22;24866;50.248;8.252;2023-07-02T06:33:06;16.20;99.90
37408;DHT22;24866;50.248;8.252;2023-07-02T06:35:37;16.20;99.90
37408;DHT22;24866;50.248;8.252;2023-07-02T06:38:07;16.30;99.90
37408;DHT22;24866;50.248;8.252;2023-07-02T06:40:37;16.20;99.90
37408;DHT22;24866;50.248;8.252;2023-07-02T06:43:07;16.30;99.90
37408;DHT22;24866;50.248;8.252;2023-07-02T06:45:37;16.20;99.90
37408;DHT22;24866;50.248;8.252;2023-07-02T06:48:07;16.30;99.90
37408;DHT22;24866;50.248;8.252;2023-07-02T06:50:38;16.30;99.90
37408;DHT22;24866;50.248;8.252;2023-07-02T06:53:08;16.40;99.90
37408;DHT22;24866;50.248;8.252;2023-07-02T06:55:38;16.30;99.90
37408;DHT22;24866;50.248;8.252;2023-07-02T06:58:08;16.40;99.90
37408;DHT22;24866;50.248;8.252;2023-07-02T07:00:38;16.50;99.90
37408;DHT22;24866;50.248;8.252;2023-07-02T07:03:08;16.90;99.90
37408;DHT22;24866;50.248;8.252;2023-07-02T07:05:39;16.70;99.90
37408;DHT22;24866;50.248;8.252;2023-07-02T07:08:09;16.70;99.90
37408;DHT22;24866;50.248;8.252;2023-07-02T07:10:40;16.80;99.90
37408;DHT22;24866;50.248;8.252;2023-07-02T07:13:10;16.70;99.90
37408;DHT22;24866;50.248;8.252;2023-07-02T07:15:39;16.60;99.90
37408;DHT22;24866;50.248;8.252;2023-07-02T07:18:10;16.80;99.90
37408;DHT22;24866;50.248;8.252;2023-07-02T07:20:41;17.10;99.90
37408;DHT22;24866;50.248;8.252;2023-07-02T07:23:11;17.00;99.90
37408;DHT22;24866;50.248;8.252;2023-07-02T07:25:41;16.70;99.90
37408;DHT22;24866;50.248;8.252;2023-07-02T07:28:11;16.50;99.90
37408;DHT22;24866;50.248;8.252;2023-07-02T07:30:44;16.70;99.90
37408;DHT22;24866;50.248;8.252;2023-07-02T07:33:14;16.80;99.90
37408;DHT22;24866;50.248;8.252;2023-07-02T07:35:45;16.90;99.90
37408;DHT22;24866;50.248;8.252;2023-07-02T07:38:17;16.90;99.90
37408;DHT22;24866;50.248;8.252;2023-07-02T07:40:47;17.00;99.90
37408;DHT22;24866;50.248;8.252;2023-07-02T07:43:17;16.90;99.90
37408;DHT22;24866;50.248;8.252;2023-07-02T07:45:47;17.30;99.90
37408;DHT22;24866;50.248;8.252;2023-07-02T07:48:17;17.30;99.90
37408;DHT22;24866;50.248;8.252;2023-07-02T07:50:48;17.30;99.90
37408;DHT22;24866;50.248;8.252;2023-07-02T07:53:18;17.60;99.90
37408;DHT22;24866;50.248;8.252;2023-07-02T07:55:48;17.70;99.90
37408;DHT22;24866;50.248;8.252;2023-07-02T07:58:18;17.70;99.90
37408;DHT22;24866;50.248;8.252;2023-07-02T08:00:48;17.90;99.90
37408;DHT22;24866;50.248;8.252;2023-07-02T08:03:18;18.20;99.90
37408;DHT22;24866;50.248;8.252;2023-07-02T08:05:49;18.40;99.90
37408;DHT22;24866;50.248;8.252;2023-07-02T08:08:19;18.60;99.90
37408;DHT22;24866;50.248;8.252;2023-07-02T08:10:49;18.30;99.90
37408;DHT22;24866;50.248;8.252;2023-07-02T08:13:18;18.20;99.90
37408;DHT22;24866;50.248;8.252;2023-07-02T08:15:49;18.20;99.90
37408;DHT22;24866;50.248;8.252;2023-07-02T08:18:18;18.30;99.90
37408;DHT22;24866;50.248;8.252;2023-07-02T08:20:50;18.40;99.90
37408;DHT22;24866;50.248;8.252;2023-07-02T08:23:20;18.30;99.90
37408;DHT22;24866;50.248;8.252;2023-07-02T08:25:50;18.20;99.90
37408;DHT22;24866;50.248;8.252;2023-07-02T08:28:19;18.40;99.90
37408;DHT22;24866;50.248;8.252;2023-07-02T08:30:49;18.50;99.90
37408;DHT22;24866;50.248;8.252;2023-07-02T08:33:19;18.60;99.90
37408;DHT22;24866;50.248;8.252;2023-07-02T08:35:51;18.80;99.90
37408;DHT22;24866;50.248;8.252;2023-07-02T08:38:21;19.10;99.90
37408;DHT22;24866;50.248;8.252;2023-07-02T08:40:51;19.00;99.90
37408;DHT22;24866;50.248;8.252;2023-07-02T08:43:21;18.90;99.90
37408;DHT22;24866;50.248;8.252;2023-07-02T08:45:53;19.30;99.90
37408;DHT22;24866;50.248;8.252;2023-07-02T08:48:23;19.10;99.90
37408;DHT22;24866;50.248;8.252;2023-07-02T08:50:56;19.00;99.90
37408;DHT22;24866;50.248;8.252;2023-07-02T08:53:26;18.80;99.90
37408;DHT22;24866;50.248;8.252;2023-07-02T08:55:58;19.20;99.90
37408;DHT22;24866;50.248;8.252;2023-07-02T08:58:28;19.90;99.90
37408;DHT22;24866;50.248;8.252;2023-07-02T09:01:05;18.80;99.90
37408;DHT22;24866;50.248;8.252;2023-07-02T09:03:37;19.20;99.90
37408;DHT22;24866;50.248;8.252;2023-07-02T09:06:10;19.20;99.90
37408;DHT22;24866;50.248;8.252;2023-07-02T09:08:40;19.30;99.90
37408;DHT22;24866;50.248;8.252;2023-07-02T09:11:11;19.30;99.90
37408;DHT22;24866;50.248;8.252;2023-07-02T09:13:46;19.70;99.90
37408;DHT22;24866;50.248;8.252;2023-07-02T09:16:23;20.20;99.90
37408;DHT22;24866;50.248;8.252;2023-07-02T09:19:01;19.80;99.90
37408;DHT22;24866;50.248;8.252;2023-07-02T09:21:40;19.30;99.90
37408;DHT22;24866;50.248;8.252;2023-07-02T09:24:15;18.90;99.90
37408;DHT22;24866;50.248;8.252;2023-07-02T09:26:45;18.80;99.90
37408;DHT22;24866;50.248;8.252;2023-07-02T09:29:18;19.30;99.90
37408;DHT22;24866;50.248;8.252;2023-07-02T09:31:48;19.20;99.90
37408;DHT22;24866;50.248;8.252;2023-07-02T09:34:18;19.10;99.90
37408;DHT22;24866;50.248;8.252;2023-07-02T09:36:49;19.10;99.90
37408;DHT22;24866;50.248;8.252;2023-07-02T09:39:24;19.20;99.90
37408;DHT22;24866;50.248;8.252;2023-07-02T09:41:55;19.20;99.90
37408;DHT22;24866;50.248;8.252;2023-07-02T09:44:27;19.20;99.90
37408;DHT22;24866;50.248;8.252;2023-07-02T09:47:01;19.70;99.90
37408;DHT22;24866;50.248;8.252;2023-07-02T09:49:33;20.10;99.90
37408;DHT22;24866;50.248;8.252;2023-07-02T09:52:06;20.00;99.90
37408;DHT22;24866;50.248;8.252;2023-07-02T09:54:37;20.40;99.90
37408;DHT22;24866;50.248;8.252;2023-07-02T09:57:07;19.60;99.90
37408;DHT22;24866;50.248;8.252;2023-07-02T09:59:38;20.20;99.90
37408;DHT22;24866;50.248;8.252;2023-07-02T10:02:09;20.60;99.90
37408;DHT22;24866;50.248;8.252;2023-07-02T10:04:40;20.20;99.90
37408;DHT22;24866;50.248;8.252;2023-07-02T10:07:26;20.00;99.90
37408;DHT22;24866;50.248;8.252;2023-07-02T10:09:57;19.60;99.90
37408;DHT22;24866;50.248;8.252;2023-07-02T10:12:28;19.80;99.90
37408;DHT22;24866;50.248;8.252;2023-07-02T10:14:59;19.90;99.90
37408;DHT22;24866;50.248;8.252;2023-07-02T10:17:30;21.00;99.90
37408;DHT22;24866;50.248;8.252;2023-07-02T10:20:03;20.70;99.90
37408;DHT22;24866;50.248;8.252;2023-07-02T10:22:44;20.20;99.90
37408;DHT22;24866;50.248;8.252;2023-07-02T10:25:24;19.70;99.90
37408;DHT22;24866;50.248;8.252;2023-07-02T10:27:54;20.20;99.90
37408;DHT22;24866;50.248;8.252;2023-07-02T10:30:32;20.30;99.90
37408;DHT22;24866;50.248;8.252;2023-07-02T10:33:12;19.90;99.90
37408;DHT22;24866;50.248;8.252;2023-07-02T10:35:44;20.10;99.90
37408;DHT22;24866;50.248;8.252;2023-07-02T10:38:18;20.10;99.90
37408;DHT22;24866;50.248;8.252;2023-07-02T10:40:54;19.80;99.90
37408;DHT22;24866;50.248;8.252;2023-07-02T10:43:25;19.60;99.90
37408;DHT22;24866;50.248;8.252;2023-07-02T10:45:56;20.20;99.90
37408;DHT22;24866;50.248;8.252;2023-07-02T10:48:28;20.40;99.90
37408;DHT22;24866;50.248;8.252;2023-07-02T10:50:58;20.20;99.90
37408;DHT22;24866;50.248;8.252;2023-07-02T10:53:29;20.60;99.90
37408;DHT22;24866;50.248;8.252;2023-07-02T10:56:00;20.50;99.90
37408;DHT22;24866;50.248;8.252;2023-07-02T10:58:30;20.30;99.90
37408;DHT22;24866;50.248;8.252;2023-07-02T11:00:59;20.00;99.90
37408;DHT22;24866;50.248;8.252;2023-07-02T11:03:31;20.30;99.90
37408;DHT22;24866;50.248;8.252;2023-07-02T11:06:00;21.10;99.90
37408;DHT22;24866;50.248;8.252;2023-07-02T11:08:38;20.50;99.90
37408;DHT22;24866;50.248;8.252;2023-07-02T11:11:08;20.40;99.90
37408;DHT22;24866;50.248;8.252;2023-07-02T11:13:44;20.30;99.90
37408;DHT22;24866;50.248;8.252;2023-07-02T11:16:20;20.30;99.90
37408;DHT22;24866;50.248;8.252;2023-07-02T11:18:53;20.60;99.90
37408;DHT22;24866;50.248;8.252;2023-07-02T11:21:24;20.40;99.90
37408;DHT22;24866;50.248;8.252;2023-07-02T11:24:02;20.20;1.00
37408;DHT22;24866;50.248;8.252;2023-07-02T11:26:36;20.60;1.00
37408;DHT22;24866;50.248;8.252;2023-07-02T11:29:10;20.30;5.20
37408;DHT22;24866;50.248;8.252;2023-07-02T11:31:40;20.50;99.90
37408;DHT22;24866;50.248;8.252;2023-07-02T11:34:13;20.50;99.90
37408;DHT22;24866;50.248;8.252;2023-07-02T11:36:44;20.50;1.00
37408;DHT22;24866;50.248;8.252;2023-07-02T11:39:16;20.70;99.90
37408;DHT22;24866;50.248;8.252;2023-07-02T11:41:47;20.30;1.00
37408;DHT22;24866;50.248;8.252;2023-07-02T11:44:17;20.40;99.90
37408;DHT22;24866;50.248;8.252;2023-07-02T11:46:47;20.30;39.00
37408;DHT22;24866;50.248;8.252;2023-07-02T11:49:17;20.00;1.00
37408;DHT22;24866;50.248;8.252;2023-07-02T11:51:47;20.00;99.90
37408;DHT22;24866;50.248;8.252;2023-07-02T11:54:19;20.20;99.90
37408;DHT22;24866;50.248;8.252;2023-07-02T11:56:49;20.10;52.10
37408;DHT22;24866;50.248;8.252;2023-07-02T11:59:19;20.80;99.90
37408;DHT22;24866;50.248;8.252;2023-07-02T12:01:48;20.80;1.00
37408;DHT22;24866;50.248;8.252;2023-07-02T12:04:18;20.40;1.00
37408;DHT22;24866;50.248;8.252;2023-07-02T12:06:48;20.20;1.00
37408;DHT22;24866;50.248;8.252;2023-07-02T12:09:19;20.40;1.00
37408;DHT22;24866;50.248;8.252;2023-07-02T12:11:49;20.60;1.00
37408;DHT22;24866;50.248;8.252;2023-07-02T12:14:19;20.70;1.00
37408;DHT22;24866;50.248;8.252;2023-07-02T12:16:49;20.80;1.00
37408;DHT22;24866;50.248;8.252;2023-07-02T12:19:19;20.40;99.90
37408;DHT22;24866;50.248;8.252;2023-07-02T12:21:49;20.40;1.00
37408;DHT22;24866;50.248;8.252;2023-07-02T12:24:20;20.80;1.00
37408;DHT22;24866;50.248;8.252;2023-07-02T12:26:50;21.30;1.00
37408;DHT22;24866;50.248;8.252;2023-07-02T12:29:20;21.60;1.00
37408;DHT22;24866;50.248;8.252;2023-07-02T12:31:50;21.20;1.00
37408;DHT22;24866;50.248;8.252;2023-07-02T12:34:20;20.90;1.00
37408;DHT22;24866;50.248;8.252;2023-07-02T12:36:49;21.00;99.90
37408;DHT22;24866;50.248;8.252;2023-07-02T12:39:21;20.70;99.90
37408;DHT22;24866;50.248;8.252;2023-07-02T12:41:51;20.60;99.90
37408;DHT22;24866;50.248;8.252;2023-07-02T12:44:21;20.60;99.90
37408;DHT22;24866;50.248;8.252;2023-07-02T12:46:54;20.90;99.90
37408;DHT22;24866;50.248;8.252;2023-07-02T12:49:24;21.70;99.90
37408;DHT22;24866;50.248;8.252;2023-07-02T12:51:54;21.80;99.90
37408;DHT22;24866;50.248;8.252;2023-07-02T12:54:26;21.70;99.90
37408;DHT22;24866;50.248;8.252;2023-07-02T12:56:56;21.40;78.50
37408;DHT22;24866;50.248;8.252;2023-07-02T12:59:26;20.80;1.00
37408;DHT22;24866;50.248;8.252;2023-07-02T13:01:55;20.90;1.00
37408;DHT22;24866;50.248;8.252;2023-07-02T13:04:25;20.90;1.00
37408;DHT22;24866;50.248;8.252;2023-07-02T13:06:57;21.00;1.00
37408;DHT22;24866;50.248;8.252;2023-07-02T13:09:28;21.20;1.00
37408;DHT22;24866;50.248;8.252;2023-07-02T13:11:58;21.30;1.00
37408;DHT22;24866;50.248;8.252;2023-07-02T13:14:28;21.40;1.00
37408;DHT22;24866;50.248;8.252;2023-07-02T13:17:01;21.20;1.00
37408;DHT22;24866;50.248;8.252;2023-07-02T13:19:33;20.80;1.00
37408;DHT22;24866;50.248;8.252;2023-07-02T13:22:04;20.80;99.90
37408;DHT22;24866;50.248;8.252;2023-07-02T13:24:35;21.20;1.00
37408;DHT22;24866;50.248;8.252;2023-07-02T13:27:09;21.00;1.00
37408;DHT22;24866;50.248;8.252;2023-07-02T13:29:40;20.90;1.00
37408;DHT22;24866;50.248;8.252;2023-07-02T13:32:10;21.00;1.00
37408;DHT22;24866;50.248;8.252;2023-07-02T13:34:41;21.00;1.00
37408;DHT22;24866;50.248;8.252;2023-07-02T13:37:10;21.30;1.00
37408;DHT22;24866;50.248;8.252;2023-07-02T13:39:42;21.10;99.90
37408;DHT22;24866;50.248;8.252;2023-07-02T13:42:12;21.50;1.00
37408;DHT22;24866;50.248;8.252;2023-07-02T13:44:43;21.60;1.00
37408;DHT22;24866;50.248;8.252;2023-07-02T13:47:13;21.50;99.90
37408;DHT22;24866;50.248;8.252;2023-07-02T13:49:42;21.30;99.90
37408;DHT22;24866;50.248;8.252;2023-07-02T13:52:13;21.10;99.90
37408;DHT22;24866;50.248;8.252;2023-07-02T13:54:44;20.80;99.90
37408;DHT22;24866;50.248;8.252;2023-07-02T13:57:14;20.80;99.90
37408;DHT22;24866;50.248;8.252;2023-07-02T13:59:45;20.90;99.90
37408;DHT22;24866;50.248;8.252;2023-07-02T14:02:16;21.40;99.90
37408;DHT22;24866;50.248;8.252;2023-07-02T14:04:47;21.90;99.90
37408;DHT22;24866;50.248;8.252;2023-07-02T14:07:16;21.50;99.90
37408;DHT22;24866;50.248;8.252;2023-07-02T14:09:46;21.40;56.50
37408;DHT22;24866;50.248;8.252;2023-07-02T14:12:16;21.60;99.90
37408;DHT22;24866;50.248;8.252;2023-07-02T14:14:48;21.10;1.00
37408;DHT22;24866;50.248;8.252;2023-07-02T14:17:18;21.20;1.00
37408;DHT22;24866;50.248;8.252;2023-07-02T14:19:48;21.20;1.00
37408;DHT22;24866;50.248;8.252;2023-07-02T14:22:17;21.40;1.00
37408;DHT22;24866;50.248;8.252;2023-07-02T14:24:47;21.80;1.00
37408;DHT22;24866;50.248;8.252;2023-07-02T14:27:17;21.70;1.00
37408;DHT22;24866;50.248;8.252;2023-07-02T14:29:49;21.60;1.00
37408;DHT22;24866;50.248;8.252;2023-07-02T14:32:19;21.70;1.00
37408;DHT22;24866;50.248;8.252;2023-07-02T14:34:49;21.40;1.00
37408;DHT22;24866;50.248;8.252;2023-07-02T14:37:18;21.20;1.00
37408;DHT22;24866;50.248;8.252;2023-07-02T14:39:48;21.50;1.00
37408;DHT22;24866;50.248;8.252;2023-07-02T14:42:18;21.50;1.00
37408;DHT22;24866;50.248;8.252;2023-07-02T14:44:50;21.50;1.00
37408;DHT22;24866;50.248;8.252;2023-07-02T14:47:19;21.50;1.00
37408;DHT22;24866;50.248;8.252;2023-07-02T14:49:50;21.80;1.00
37408;DHT22;24866;50.248;8.252;2023-07-02T14:52:20;21.30;1.00
37408;DHT22;24866;50.248;8.252;2023-07-02T14:54:52;21.60;1.00
37408;DHT22;24866;50.248;8.252;2023-07-02T14:57:22;21.60;1.00
37408;DHT22;24866;50.248;8.252;2023-07-02T14:59:53;21.60;99.90
37408;DHT22;24866;50.248;8.252;2023-07-02T15:02:23;21.40;99.90
37408;DHT22;24866;50.248;8.252;2023-07-02T15:04:53;21.20;99.90
37408;DHT22;24866;50.248;8.252;2023-07-02T15:07:23;21.20;99.90
37408;DHT22;24866;50.248;8.252;2023-07-02T15:09:53;21.20;99.90
37408;DHT22;24866;50.248;8.252;2023-07-02T15:12:23;21.40;99.90
37408;DHT22;24866;50.248;8.252;2023-07-02T15:14:54;21.40;99.90
37408;DHT22;24866;50.248;8.252;2023-07-02T15:17:24;21.30;99.90
37408;DHT22;24866;50.248;8.252;2023-07-02T15:19:54;21.10;99.90
37408;DHT22;24866;50.248;8.252;2023-07-02T15:22:24;21.00;99.90
37408;DHT22;24866;50.248;8.252;2023-07-02T15:24:54;21.40;99.90
37408;DHT22;24866;50.248;8.252;2023-07-02T15:27:24;21.70;99.90
37408;DHT22;24866;50.248;8.252;2023-07-02T15:29:55;22.10;99.90
37408;DHT22;24866;50.248;8.252;2023-07-02T15:32:25;21.80;99.90
37408;DHT22;24866;50.248;8.252;2023-07-02T15:34:55;21.50;99.90
37408;DHT22;24866;50.248;8.252;2023-07-02T15:37:25;21.50;99.90
37408;DHT22;24866;50.248;8.252;2023-07-02T15:39:55;21.60;99.90
37408;DHT22;24866;50.248;8.252;2023-07-02T15:42:25;21.70;99.90
37408;DHT22;24866;50.248;8.252;2023-07-02T15:45:02;21.40;99.90
37408;DHT22;24866;50.248;8.252;2023-07-02T15:47:32;21.50;99.50
37408;DHT22;24866;50.248;8.252;2023-07-02T15:50:02;21.50;81.20
37408;DHT22;24866;50.248;8.252;2023-07-02T15:52:32;21.30;28.20
37408;DHT22;24866;50.248;8.252;2023-07-02T15:55:02;21.70;99.90